createdAt,value
2019-05-19T00:00:07.886Z,4.33
2019-05-19T00:02:39.890Z,4.80
2019-05-19T00:05:06.988Z,4.77
2019-05-19T00:07:35.528Z,4.40
2019-05-19T00:10:06.428Z,4.57
2019-05-19T00:12:35.139Z,4.37
2019-05-19T00:15:05.525Z,4.03
2019-05-19T00:17:34.181Z,4.87
2019-05-19T00:20:03.318Z,4.97
2019-05-19T00:22:31.854Z,4.77
2019-05-19T00:25:00.435Z,4.60
2019-05-19T00:27:29.247Z,4.50
2019-05-19T00:29:57.834Z,3.97
2019-05-19T00:32:26.375Z,4.20
2019-05-19T00:34:54.950Z,4.30
2019-05-19T00:37:23.486Z,4.97
2019-05-19T00:39:52.071Z,4.50
2019-05-19T00:42:20.682Z,4.20
2019-05-19T00:44:49.338Z,4.50
2019-05-19T00:47:17.882Z,4.50
2019-05-19T00:49:46.534Z,4.40
2019-05-19T00:52:15.085Z,5.27
2019-05-19T00:54:43.810Z,4.87
2019-05-19T00:57:12.951Z,4.73
2019-05-19T00:59:42.503Z,4.93
2019-05-19T01:02:11.160Z,5.00
2019-05-19T01:04:39.739Z,5.10
2019-05-19T01:07:08.396Z,4.77
2019-05-19T01:09:36.983Z,5.70
2019-05-19T01:12:05.601Z,5.47
2019-05-19T01:14:34.173Z,4.90
2019-05-19T01:17:02.803Z,4.93
2019-05-19T01:19:31.327Z,4.90
2019-05-19T01:22:01.829Z,4.67
2019-05-19T01:24:30.369Z,5.40
2019-05-19T01:26:58.950Z,4.40
2019-05-19T01:29:27.490Z,5.30
2019-05-19T01:31:56.237Z,5.00
2019-05-19T01:34:24.823Z,4.37
2019-05-19T01:36:53.657Z,4.73
2019-05-19T01:39:22.232Z,4.50
2019-05-19T01:41:50.805Z,4.47
2019-05-19T01:44:19.279Z,4.80
2019-05-19T01:46:47.854Z,4.50
2019-05-19T01:49:16.396Z,4.20
2019-05-19T01:51:44.972Z,3.60
2019-05-19T01:54:16.622Z,4.30
2019-05-19T01:56:43.740Z,4.00
2019-05-19T01:59:12.286Z,3.83
2019-05-19T02:01:40.891Z,3.53
2019-05-19T02:04:09.494Z,3.90
2019-05-19T02:06:38.147Z,4.00
2019-05-19T02:09:07.390Z,4.20
2019-05-19T02:11:35.981Z,4.50
2019-05-19T02:14:04.661Z,3.80
2019-05-19T02:16:33.313Z,4.17
2019-05-19T02:19:01.877Z,3.80
2019-05-19T02:21:30.439Z,3.37
2019-05-19T02:23:58.991Z,4.40
2019-05-19T02:26:27.590Z,4.50
2019-05-19T02:28:56.130Z,3.73
2019-05-19T02:31:24.722Z,4.07
2019-05-19T02:33:53.297Z,4.40
2019-05-19T02:36:21.859Z,3.83
2019-05-19T02:38:50.404Z,4.30
2019-05-19T02:41:21.905Z,4.30
2019-05-19T02:43:53.158Z,4.17
2019-05-19T02:46:22.583Z,4.10
2019-05-19T02:48:52.566Z,4.23
2019-05-19T02:51:22.579Z,3.60
2019-05-19T02:53:51.859Z,4.23
2019-05-19T02:56:22.170Z,3.97
2019-05-19T02:58:52.624Z,3.90
2019-05-19T03:01:21.155Z,3.67
2019-05-19T03:03:49.692Z,3.90
2019-05-19T03:06:18.275Z,3.57
2019-05-19T03:08:46.819Z,4.30
2019-05-19T03:11:15.408Z,4.30
2019-05-19T03:13:43.956Z,4.10
2019-05-19T03:16:12.826Z,4.43
2019-05-19T03:18:41.476Z,4.10
2019-05-19T03:21:11.825Z,4.33
2019-05-19T03:23:40.383Z,3.87
2019-05-19T03:26:08.967Z,4.23
2019-05-19T03:28:37.619Z,4.10
2019-05-19T03:31:20.144Z,4.80
2019-05-19T03:33:58.969Z,3.90
2019-05-19T03:36:27.553Z,4.00
2019-05-19T03:38:56.543Z,4.17
2019-05-19T03:41:25.126Z,4.63
2019-05-19T03:43:53.676Z,3.80
2019-05-19T03:46:22.316Z,4.13
2019-05-19T03:48:50.859Z,4.00
2019-05-19T03:51:29.985Z,4.37
2019-05-19T03:53:49.621Z,3.80
2019-05-19T03:56:18.205Z,4.00
2019-05-19T03:58:46.732Z,3.80
2019-05-19T04:01:15.331Z,3.23
2019-05-19T04:03:43.879Z,3.90
2019-05-19T04:06:12.410Z,4.50
2019-05-19T04:08:41.002Z,4.83
2019-05-19T04:11:10.358Z,4.13
2019-05-19T04:13:38.948Z,4.00
2019-05-19T04:16:07.523Z,3.90
2019-05-19T04:18:36.075Z,4.00
2019-05-19T04:21:04.784Z,4.30
2019-05-19T04:23:33.325Z,4.77
2019-05-19T04:26:01.922Z,4.67
2019-05-19T04:28:30.462Z,5.10
2019-05-19T04:30:59.047Z,4.70
2019-05-19T04:33:27.605Z,4.87
2019-05-19T04:35:57.567Z,5.13
2019-05-19T04:38:26.423Z,4.93
2019-05-19T04:40:54.999Z,4.63
2019-05-19T04:43:23.737Z,4.83
2019-05-19T04:45:52.299Z,4.63
2019-05-19T04:48:20.887Z,5.40
2019-05-19T04:50:49.436Z,4.73
2019-05-19T04:53:17.975Z,5.70
2019-05-19T04:55:46.555Z,5.20
2019-05-19T04:58:15.099Z,4.70
2019-05-19T05:00:43.818Z,5.00
2019-05-19T05:03:12.303Z,5.10
2019-05-19T05:05:40.896Z,5.30
2019-05-19T05:08:25.205Z,4.80
2019-05-19T05:10:39.702Z,5.10
2019-05-19T05:13:08.419Z,5.70
2019-05-19T05:15:36.989Z,5.63
2019-05-19T05:18:05.567Z,4.93
2019-05-19T05:20:34.178Z,5.40
2019-05-19T05:23:02.779Z,4.93
2019-05-19T05:25:31.343Z,5.33
2019-05-19T05:27:59.891Z,4.43
2019-05-19T05:30:28.550Z,5.07
2019-05-19T05:32:57.154Z,4.37
2019-05-19T05:35:25.771Z,5.27
2019-05-19T05:37:54.425Z,3.87
2019-05-19T05:40:23.195Z,4.10
2019-05-19T05:42:51.775Z,4.53
2019-05-19T05:45:20.399Z,4.07
2019-05-19T05:47:49.013Z,4.23
2019-05-19T05:50:17.663Z,4.40
2019-05-19T05:52:46.249Z,4.30
2019-05-19T05:55:15.415Z,4.53
2019-05-19T05:57:43.954Z,3.90
2019-05-19T06:00:15.698Z,4.77
2019-05-19T06:02:42.907Z,4.37
2019-05-19T06:05:11.594Z,5.30
2019-05-19T06:07:40.172Z,4.80
2019-05-19T06:10:10.395Z,5.50
2019-05-19T06:12:38.935Z,5.53
2019-05-19T06:15:07.967Z,5.80
2019-05-19T06:17:36.498Z,5.50
2019-05-19T06:20:07.640Z,5.67
2019-05-19T06:22:36.638Z,5.77
2019-05-19T06:25:06.177Z,5.43
2019-05-19T06:27:35.194Z,6.10
2019-05-19T06:30:08.087Z,6.53
2019-05-19T06:32:39.640Z,6.40
2019-05-19T06:35:08.821Z,6.50
2019-05-19T06:37:37.352Z,6.53
2019-05-19T06:40:07.334Z,5.77
2019-05-19T06:42:35.911Z,6.90
2019-05-19T06:45:05.286Z,6.00
2019-05-19T06:47:33.941Z,6.20
2019-05-19T06:50:02.682Z,6.33
2019-05-19T06:52:31.215Z,6.73
2019-05-19T06:54:59.760Z,6.47
2019-05-19T06:57:28.337Z,6.40
2019-05-19T06:59:56.879Z,6.60
2019-05-19T07:02:25.458Z,6.60
2019-05-19T07:04:53.999Z,6.80
2019-05-19T07:07:22.583Z,6.60
2019-05-19T07:09:58.477Z,5.93
2019-05-19T07:12:21.464Z,6.87
2019-05-19T07:14:50.012Z,6.10
2019-05-19T07:17:18.598Z,7.13
2019-05-19T07:19:47.154Z,6.60
2019-05-19T07:22:15.743Z,6.07
2019-05-19T07:24:44.318Z,6.47
2019-05-19T07:27:12.794Z,6.47
2019-05-19T07:29:41.384Z,7.17
2019-05-19T07:32:09.929Z,6.67
2019-05-19T07:34:38.515Z,6.77
2019-05-19T07:37:07.118Z,6.50
2019-05-19T07:39:35.703Z,6.63
2019-05-19T07:42:04.315Z,6.07
2019-05-19T07:44:32.901Z,7.60
2019-05-19T07:47:01.446Z,7.00
2019-05-19T07:49:29.974Z,7.37
2019-05-19T07:51:58.505Z,7.73
2019-05-19T07:54:27.079Z,7.60
2019-05-19T07:56:55.635Z,8.37
2019-05-19T07:59:24.219Z,7.90
2019-05-19T08:01:52.761Z,7.97
2019-05-19T08:04:21.338Z,8.70
2019-05-19T08:06:49.905Z,8.23
2019-05-19T08:09:18.479Z,8.50
2019-05-19T08:11:47.077Z,9.43
2019-05-19T08:14:15.687Z,8.97
2019-05-19T08:16:44.236Z,8.93
2019-05-19T08:19:12.826Z,8.37
2019-05-19T08:21:41.415Z,9.27
2019-05-19T08:24:09.955Z,8.20
2019-05-19T08:26:38.540Z,8.27
2019-05-19T08:29:07.124Z,7.73
2019-05-19T08:31:35.663Z,8.00
2019-05-19T08:34:04.401Z,9.03
2019-05-19T08:36:33.054Z,8.00
2019-05-19T08:39:01.606Z,8.83
2019-05-19T08:41:30.354Z,8.87
2019-05-19T08:43:58.908Z,7.97
2019-05-19T08:46:27.546Z,7.93
2019-05-19T08:48:58.485Z,8.87
2019-05-19T08:51:26.316Z,8.40
2019-05-19T08:53:54.854Z,8.67
2019-05-19T08:56:23.440Z,8.20
2019-05-19T08:58:51.990Z,7.77
2019-05-19T09:01:20.567Z,7.20
2019-05-19T09:03:49.106Z,7.70
2019-05-19T09:06:17.695Z,7.73
2019-05-19T09:08:46.534Z,8.80
2019-05-19T09:11:15.102Z,7.73
2019-05-19T09:13:43.746Z,7.53
2019-05-19T09:16:12.267Z,6.87
2019-05-19T09:18:40.847Z,8.27
2019-05-19T09:21:09.404Z,6.93
2019-05-19T09:23:37.955Z,7.50
2019-05-19T09:26:06.508Z,7.40
2019-05-19T09:28:35.171Z,7.77
2019-05-19T09:31:03.794Z,6.90
2019-05-19T09:33:32.376Z,7.10
2019-05-19T09:36:00.913Z,7.40
2019-05-19T09:38:29.491Z,7.30
2019-05-19T09:40:58.036Z,7.63
2019-05-19T09:43:26.684Z,7.60
2019-05-19T09:45:55.268Z,7.20
2019-05-19T09:48:23.859Z,7.20
2019-05-19T09:50:52.435Z,6.87
2019-05-19T09:53:20.979Z,6.57
2019-05-19T09:55:49.563Z,7.70
2019-05-19T09:58:20.035Z,6.63
2019-05-19T10:00:48.647Z,7.50
2019-05-19T10:03:19.647Z,6.30
2019-05-19T10:05:47.429Z,6.40
2019-05-19T10:08:16.008Z,5.70
2019-05-19T10:10:47.622Z,7.50
2019-05-19T10:13:16.202Z,6.60
2019-05-19T10:15:44.743Z,6.70
2019-05-19T10:18:13.393Z,6.80
2019-05-19T10:20:41.987Z,6.43
2019-05-19T10:23:10.571Z,6.33
2019-05-19T10:25:39.107Z,6.10
2019-05-19T10:28:07.689Z,5.90
2019-05-19T10:30:36.230Z,5.27
2019-05-19T10:33:04.873Z,8.37
2019-05-19T10:35:33.427Z,8.87
2019-05-19T10:38:02.037Z,6.90
2019-05-19T10:40:30.540Z,6.50
2019-05-19T10:42:59.187Z,6.00
2019-05-19T10:45:27.731Z,7.07
2019-05-19T10:47:56.315Z,6.57
2019-05-19T10:50:24.966Z,5.47
2019-05-19T10:52:53.510Z,5.37
2019-05-19T10:55:35.369Z,5.50
2019-05-19T10:57:52.292Z,5.87
2019-05-19T11:00:21.211Z,5.03
2019-05-19T11:02:49.823Z,5.63
2019-05-19T11:05:18.334Z,5.50
2019-05-19T11:07:46.885Z,5.80
2019-05-19T11:10:15.698Z,5.30
2019-05-19T11:12:46.920Z,5.10
2019-05-19T11:15:15.119Z,4.73
2019-05-19T11:17:44.010Z,5.63
2019-05-19T11:20:12.552Z,5.00
2019-05-19T11:22:41.138Z,5.40
2019-05-19T11:25:10.059Z,6.17
2019-05-19T11:27:38.605Z,5.10
2019-05-19T11:30:07.471Z,5.40
2019-05-19T11:32:36.046Z,5.93
2019-05-19T11:35:06.265Z,5.30
2019-05-19T11:37:34.842Z,6.00
2019-05-19T11:40:03.492Z,4.90
2019-05-19T11:42:32.069Z,5.53
2019-05-19T11:45:00.606Z,5.30
2019-05-19T11:47:29.191Z,5.20
2019-05-19T11:49:57.727Z,4.90
2019-05-19T11:52:26.609Z,4.47
2019-05-19T11:54:55.147Z,5.40
2019-05-19T11:57:23.739Z,4.70
2019-05-19T11:59:52.283Z,3.93
2019-05-19T12:02:20.872Z,4.53
2019-05-19T12:04:49.403Z,4.57
2019-05-19T12:07:18.300Z,4.70
2019-05-19T12:09:46.889Z,4.37
2019-05-19T12:12:15.423Z,4.30
2019-05-19T12:14:44.007Z,4.60
2019-05-19T12:17:12.670Z,4.33
2019-05-19T12:19:41.241Z,3.80
2019-05-19T12:22:09.857Z,3.90
2019-05-19T12:24:38.439Z,3.87
2019-05-19T12:27:06.975Z,3.60
2019-05-19T12:29:35.483Z,4.23
2019-05-19T12:32:04.093Z,4.13
2019-05-19T12:34:32.672Z,4.40
2019-05-19T12:37:01.270Z,3.90
2019-05-19T12:39:30.136Z,3.80
2019-05-19T12:41:58.707Z,3.83
2019-05-19T12:44:27.276Z,4.40
2019-05-19T12:46:55.843Z,3.93
2019-05-19T12:49:24.689Z,3.53
2019-05-19T12:51:53.300Z,4.03
2019-05-19T12:54:21.874Z,3.83
2019-05-19T12:56:50.636Z,4.37
2019-05-19T12:59:19.223Z,4.10
2019-05-19T13:01:47.764Z,3.90
2019-05-19T13:04:16.343Z,4.07
2019-05-19T13:06:44.882Z,4.00
2019-05-19T13:09:13.526Z,3.83
2019-05-19T13:11:42.063Z,3.93
2019-05-19T13:14:10.638Z,3.70
2019-05-19T13:16:39.223Z,3.97
2019-05-19T13:19:07.797Z,4.17
2019-05-19T13:21:36.342Z,4.07
2019-05-19T13:24:05.068Z,3.77
2019-05-19T13:26:33.608Z,4.13
2019-05-19T13:29:02.175Z,4.80
2019-05-19T13:31:30.792Z,4.03
2019-05-19T13:33:59.362Z,4.23
2019-05-19T13:36:27.962Z,3.83
2019-05-19T13:38:56.542Z,4.13
2019-05-19T13:41:25.405Z,3.97
2019-05-19T13:43:53.998Z,3.50
2019-05-19T13:46:22.534Z,4.03
2019-05-19T13:48:51.081Z,4.00
2019-05-19T13:51:19.668Z,4.33
2019-05-19T13:53:48.246Z,3.60
2019-05-19T13:56:16.788Z,4.43
2019-05-19T13:58:45.430Z,3.67
2019-05-19T14:01:27.654Z,3.53
2019-05-19T14:03:44.240Z,3.90
2019-05-19T14:06:12.836Z,4.37
2019-05-19T14:08:41.379Z,4.93
2019-05-19T14:11:09.965Z,5.37
2019-05-19T14:13:38.797Z,5.10
2019-05-19T14:16:07.383Z,5.40
2019-05-19T14:18:35.941Z,5.73
2019-05-19T14:21:04.523Z,5.20
2019-05-19T14:23:33.063Z,5.80
2019-05-19T14:26:01.653Z,6.17
2019-05-19T14:28:30.187Z,5.87
2019-05-19T14:30:58.766Z,4.80
2019-05-19T14:33:27.302Z,4.40
2019-05-19T14:35:55.810Z,4.97
2019-05-19T14:38:24.722Z,4.40
2019-05-19T14:40:53.615Z,4.90
2019-05-19T14:43:26.352Z,3.87
2019-05-19T14:45:54.929Z,3.97
2019-05-19T14:48:34.485Z,4.20
2019-05-19T14:51:03.132Z,3.90
2019-05-19T14:53:31.687Z,4.30
2019-05-19T14:56:00.276Z,4.83
2019-05-19T14:58:28.856Z,4.30
2019-05-19T15:00:57.391Z,3.90
2019-05-19T15:03:25.974Z,4.03
2019-05-19T15:05:54.560Z,3.73
2019-05-19T15:08:23.646Z,4.10
2019-05-19T15:10:52.247Z,4.50
2019-05-19T15:13:20.788Z,4.20
2019-05-19T15:15:49.332Z,4.60
2019-05-19T15:18:17.915Z,4.37
2019-05-19T15:20:46.458Z,3.07
2019-05-19T15:23:15.110Z,2.83
2019-05-19T15:25:43.585Z,3.70
2019-05-19T15:28:12.177Z,2.90
2019-05-19T15:30:40.723Z,2.80
2019-05-19T15:33:09.301Z,3.00
2019-05-19T15:35:37.838Z,2.87
2019-05-19T15:38:06.482Z,2.77
2019-05-19T15:40:35.090Z,3.00
2019-05-19T15:43:04.111Z,19.73
2019-05-19T15:45:32.707Z,12.27
2019-05-19T15:48:01.280Z,3.07
2019-05-19T15:50:29.821Z,2.20
2019-05-19T15:52:58.569Z,3.60
2019-05-19T15:55:27.216Z,3.20
2019-05-19T15:57:55.758Z,3.10
2019-05-19T16:00:24.267Z,3.50
2019-05-19T16:02:52.807Z,2.50
2019-05-19T16:05:21.391Z,3.70
2019-05-19T16:07:49.930Z,4.13
2019-05-19T16:10:18.465Z,3.67
2019-05-19T16:12:47.015Z,3.70
2019-05-19T16:15:16.237Z,3.70
2019-05-19T16:17:44.774Z,3.57
2019-05-19T16:20:13.791Z,3.90
2019-05-19T16:22:42.334Z,3.93
2019-05-19T16:25:10.987Z,3.60
2019-05-19T16:27:39.573Z,3.30
2019-05-19T16:30:10.035Z,3.43
2019-05-19T16:32:38.750Z,7.80
2019-05-19T16:35:07.632Z,4.10
2019-05-19T16:37:36.289Z,3.97
2019-05-19T16:40:06.603Z,3.70
2019-05-19T16:42:35.245Z,3.47
2019-05-19T16:45:05.530Z,3.97
2019-05-19T16:47:34.110Z,3.73
2019-05-19T16:50:03.011Z,3.70
2019-05-19T16:52:32.218Z,3.90
2019-05-19T16:55:17.478Z,4.30
2019-05-19T16:57:47.040Z,6.50
2019-05-19T17:00:16.247Z,4.00
2019-05-19T17:02:46.250Z,4.40
2019-05-19T17:05:15.280Z,4.10
2019-05-19T17:07:43.823Z,4.50
2019-05-19T17:10:12.531Z,4.27
2019-05-19T17:12:41.142Z,4.10
2019-05-19T17:15:10.762Z,4.20
2019-05-19T17:17:39.382Z,4.10
2019-05-19T17:20:08.410Z,3.93
2019-05-19T17:22:36.942Z,4.40
2019-05-19T17:25:06.773Z,4.83
2019-05-19T17:27:35.381Z,4.73
2019-05-19T17:30:08.572Z,4.37
2019-05-19T17:32:37.190Z,4.47
2019-05-19T17:35:07.171Z,3.90
2019-05-19T17:37:35.815Z,4.37
2019-05-19T17:40:06.157Z,4.40
2019-05-19T17:42:37.198Z,4.80
2019-05-19T17:45:09.550Z,5.40
2019-05-19T17:47:38.166Z,7.17
2019-05-19T17:50:07.473Z,5.23
2019-05-19T17:52:36.087Z,4.30
2019-05-19T17:55:06.602Z,4.23
2019-05-19T17:57:36.987Z,4.10
2019-05-19T18:00:10.157Z,4.33
2019-05-19T18:02:38.523Z,4.20
2019-05-19T18:05:07.438Z,4.50
2019-05-19T18:07:36.041Z,4.43
2019-05-19T18:10:06.643Z,5.03
2019-05-19T18:12:35.332Z,5.07
2019-05-19T18:15:05.266Z,5.40
2019-05-19T18:17:33.884Z,4.70
2019-05-19T18:20:02.530Z,5.13
2019-05-19T18:22:31.072Z,4.33
2019-05-19T18:24:59.638Z,4.47
2019-05-19T18:27:28.114Z,4.30
2019-05-19T18:29:56.679Z,4.80
2019-05-19T18:32:25.228Z,5.70
2019-05-19T18:34:53.802Z,6.17
2019-05-19T18:37:22.349Z,4.50
2019-05-19T18:39:50.923Z,4.03
2019-05-19T18:42:20.601Z,4.90
2019-05-19T18:44:49.330Z,4.70
2019-05-19T18:47:17.890Z,4.20
2019-05-19T18:49:46.467Z,4.93
2019-05-19T18:52:15.010Z,4.53
2019-05-19T18:54:43.586Z,5.10
2019-05-19T18:57:12.134Z,4.77
2019-05-19T18:59:47.366Z,4.90
2019-05-19T19:02:11.416Z,5.10
2019-05-19T19:04:39.988Z,5.17
2019-05-19T19:07:08.595Z,5.90
2019-05-19T19:09:37.068Z,4.63
2019-05-19T19:12:05.715Z,5.23
2019-05-19T19:14:34.322Z,5.00
2019-05-19T19:17:02.898Z,5.40
2019-05-19T19:19:31.435Z,5.67
2019-05-19T19:21:59.999Z,4.90
2019-05-19T19:24:28.535Z,5.50
2019-05-19T19:26:57.110Z,5.23
2019-05-19T19:29:25.656Z,5.03
2019-05-19T19:31:54.232Z,5.23
2019-05-19T19:34:22.771Z,5.40
2019-05-19T19:36:51.351Z,5.60
2019-05-19T19:39:22.718Z,5.87
2019-05-19T19:41:51.287Z,5.57
2019-05-19T19:44:19.859Z,5.57
2019-05-19T19:46:48.423Z,5.70
2019-05-19T19:49:16.939Z,6.30
2019-05-19T19:51:45.523Z,5.50
2019-05-19T19:54:14.106Z,5.97
2019-05-19T19:56:42.641Z,5.00
2019-05-19T19:59:11.153Z,6.00
2019-05-19T20:01:39.713Z,6.20
2019-05-19T20:04:08.281Z,6.00
2019-05-19T20:06:36.859Z,5.23
2019-05-19T20:09:06.349Z,5.73
2019-05-19T20:11:34.931Z,5.80
2019-05-19T20:14:03.550Z,5.97
2019-05-19T20:16:32.128Z,5.93
2019-05-19T20:19:00.688Z,5.67
2019-05-19T20:21:29.265Z,5.60
2019-05-19T20:23:57.804Z,5.30
2019-05-19T20:26:26.384Z,5.70
2019-05-19T20:28:54.998Z,5.97
2019-05-19T20:31:23.644Z,6.00
2019-05-19T20:33:52.189Z,6.73
2019-05-19T20:36:20.725Z,6.13
2019-05-19T20:38:49.262Z,5.77
2019-05-19T20:41:17.849Z,5.47
2019-05-19T20:43:46.389Z,5.27
2019-05-19T20:46:15.035Z,6.43
2019-05-19T20:48:43.624Z,5.43
2019-05-19T20:51:13.206Z,6.00
2019-05-19T20:53:41.810Z,5.97
2019-05-19T20:56:10.399Z,5.50
2019-05-19T20:58:38.962Z,6.67
2019-05-19T21:01:07.528Z,5.30
2019-05-19T21:03:36.070Z,5.43
2019-05-19T21:06:04.723Z,6.10
2019-05-19T21:08:33.326Z,6.60
2019-05-19T21:11:01.911Z,6.00
2019-05-19T21:13:30.448Z,5.90
2019-05-19T21:15:59.027Z,5.37
2019-05-19T21:18:27.573Z,5.20
2019-05-19T21:20:57.733Z,5.43
2019-05-19T21:23:26.246Z,6.70
2019-05-19T21:25:54.787Z,5.23
2019-05-19T21:28:23.643Z,5.77
2019-05-19T21:31:04.937Z,5.93
2019-05-19T21:33:22.442Z,5.93
2019-05-19T21:35:50.964Z,5.80
2019-05-19T21:38:19.490Z,6.03
2019-05-19T21:40:48.076Z,6.20
2019-05-19T21:43:16.737Z,6.13
2019-05-19T21:45:45.321Z,6.00
2019-05-19T21:48:13.799Z,5.70
2019-05-19T21:50:42.350Z,6.20
2019-05-19T21:53:10.856Z,6.70
2019-05-19T21:55:39.391Z,6.13
2019-05-19T21:58:08.252Z,6.80
2019-05-19T22:00:36.978Z,6.50
2019-05-19T22:03:05.577Z,6.50
2019-05-19T22:05:34.610Z,6.00
2019-05-19T22:08:04.794Z,6.37
2019-05-19T22:10:33.446Z,6.37
2019-05-19T22:13:02.301Z,6.00
2019-05-19T22:15:30.950Z,5.93
2019-05-19T22:17:59.506Z,5.93
2019-05-19T22:20:28.130Z,5.80
2019-05-19T22:22:56.693Z,7.07
2019-05-19T22:25:25.410Z,5.70
2019-05-19T22:27:53.975Z,6.90
2019-05-19T22:30:22.698Z,5.90
2019-05-19T22:32:51.239Z,6.70
2019-05-19T22:35:19.892Z,6.47
2019-05-19T22:37:48.438Z,5.93
2019-05-19T22:40:17.014Z,6.10
2019-05-19T22:42:45.591Z,6.53
2019-05-19T22:45:14.382Z,5.83
2019-05-19T22:47:42.961Z,6.60
2019-05-19T22:50:11.776Z,6.17
2019-05-19T22:52:40.329Z,6.60
2019-05-19T22:55:09.243Z,7.00
2019-05-19T22:57:37.822Z,6.50
2019-05-19T23:00:09.744Z,6.67
2019-05-19T23:02:38.327Z,7.37
2019-05-19T23:05:08.053Z,6.07
2019-05-19T23:07:36.768Z,6.50
2019-05-19T23:10:07.282Z,6.50
2019-05-19T23:12:35.826Z,6.47
2019-05-19T23:15:07.474Z,7.00
2019-05-19T23:17:35.987Z,6.90
2019-05-19T23:20:05.486Z,5.83
2019-05-19T23:22:34.046Z,6.70
2019-05-19T23:25:02.699Z,7.10
2019-05-19T23:27:31.244Z,7.10
2019-05-19T23:29:59.829Z,6.93
2019-05-19T23:32:28.506Z,6.93
2019-05-19T23:34:57.018Z,8.03
2019-05-19T23:37:25.563Z,7.17
2019-05-19T23:39:54.349Z,5.90
2019-05-19T23:42:23.006Z,7.17
2019-05-19T23:44:51.591Z,7.93
2019-05-19T23:47:20.133Z,7.93
2019-05-19T23:49:48.719Z,8.00
2019-05-19T23:52:17.265Z,6.80
2019-05-19T23:54:45.847Z,6.97
2019-05-19T23:57:14.396Z,7.47
2019-05-19T23:59:42.975Z,7.07
